ソルトレイクシティ の空港の天気 - METARとTAF

ソルト・レーク・シティ国際空港 ( KSLC / SLC ) - アメリカ ユタ州ソルトレイクシティ
飛行場実況気象(Metar)
観測時間12/09 21:54 MST (12/10 04:54 UTC)
風向・風速南東 2m/s
視程8050m
天気現象もや
全天の8割程度の雲 雲底高度 370m
気温0.6℃
湿度85%
気圧1031.9hPa
METARKSLC 100454Z 14004KT 5SM BR BKN012 01/M02 A3043 RMK AO2 SLP319 T00061017 $
過去の天気等 Google飛行場航空写真 Wunderground天気予報

過去48時間のMETAR

飛行場予報(TAF)
発表時間: 12/09 22:26 MST (12/10 05:26 UTC)
予報対象時間: 9日23時 MST ~ 11日5時 MST
風向・風速東南東 3m/s
視程10km以上
天気現象もや
全天の8割程度の雲 雲底高度 370m
10日0時 MST から
風向・風速南南東 3m/s
視程4830m
天気現象もや
全天の4割程度の雲 雲底高度 300m
全天の8割程度の雲 雲底高度 460m
10日2時 MST から
風向・風速南南東 3m/s
視程3220m
天気現象もや 散在した霧
全天を覆う雲 雲底高度 270m
10日12時 MST から
風向・風速北西 3m/s
視程8050m
天気現象もや
全天を覆う雲 雲底高度 610m
10日20時 MST から
風向・風速北北西 2m/s
視程4830m
天気現象もや
全天の8割程度の雲 雲底高度 460m
KSLC 100526Z 1006/1112 12006KT 6SM BR BKN012
FM100700 15005KT 3SM BR SCT010 BKN015
FM100900 15005KT 2SM BR BCFG OVC009
FM101900 32006KT 5SM BR OVC020
FM110300 33004KT 3SM BR BKN015